Time;durP1;ratioP1;P1;durP2;ratioP2;P2;SDS_P1;SDS_P2;PMS_P1;PMS_P2;Temp;Humidity;BMP_temperature;BMP_pressure;BME280_temperature;BME280_humidity;BME280_pressure;Samples;Min_cycle;Max_cycle;Signal;HPM_P1;HPM_P2
2021/12/08 00:01:18;;;;;;;1.38;1.02;;;;;;;1.66;100.00;99759.00;6198790;28;20057;-74
2021/12/08 00:04:19;;;;;;;2.55;1.77;;;;;;;1.76;100.00;99760.38;6199070;28;20050;-75
2021/12/08 00:07:22;;;;;;;3.58;1.55;;;;;;;1.76;100.00;99744.00;6198935;28;20062;-74
2021/12/08 00:13:39;;;;;;;2.20;1.60;;;;;;;1.87;100.00;99741.91;6192474;28;20062;-75
2021/12/08 00:16:41;;;;;;;2.15;1.10;;;;;;;1.78;100.00;99743.06;6214630;28;20057;-75
2021/12/08 00:19:42;;;;;;;2.10;1.17;;;;;;;1.76;100.00;99739.66;6219754;28;20046;-74
2021/12/08 00:22:45;;;;;;;1.25;0.93;;;;;;;1.74;100.00;99736.28;6217658;28;20050;-75
2021/12/08 00:25:47;;;;;;;0.82;0.80;;;;;;;1.70;100.00;99737.28;6203424;28;20056;-75
2021/12/08 00:28:48;;;;;;;1.75;1.25;;;;;;;1.77;100.00;99725.84;6214384;28;20042;-74
2021/12/08 00:31:50;;;;;;;1.77;0.90;;;;;;;1.72;100.00;99724.28;6220950;28;20452;-74
2021/12/08 00:34:52;;;;;;;2.13;1.27;;;;;;;1.76;100.00;99716.34;6222556;28;20073;-74
2021/12/08 00:37:55;;;;;;;0.82;0.80;;;;;;;1.73;100.00;99706.13;6222667;28;20053;-75
2021/12/08 00:40:56;;;;;;;4.88;1.45;;;;;;;1.78;100.00;99683.50;6222348;28;20501;-74
2021/12/08 00:43:57;;;;;;;2.05;1.38;;;;;;;1.91;100.00;99660.59;6222566;28;20046;-75
2021/12/08 00:46:59;;;;;;;0.38;0.38;;;;;;;1.93;100.00;99648.44;6222583;28;20050;-75
2021/12/08 00:50:00;;;;;;;0.95;0.90;;;;;;;1.94;100.00;99647.53;6222381;28;20046;-75
2021/12/08 00:53:03;;;;;;;1.08;0.98;;;;;;;1.97;100.00;99639.66;6221728;28;20057;-75
2021/12/08 00:56:05;;;;;;;3.78;1.10;;;;;;;1.97;100.00;99641.41;6222155;28;20053;-75
2021/12/08 00:59:06;;;;;;;1.10;0.63;;;;;;;1.96;100.00;99622.44;6222550;28;20057;-74
2021/12/08 01:02:08;;;;;;;1.05;0.93;;;;;;;2.02;100.00;99624.78;6221915;28;20050;-74
2021/12/08 01:05:12;;;;;;;2.17;1.00;;;;;;;2.08;100.00;99615.94;6222512;28;20053;-75
2021/12/08 01:08:15;;;;;;;1.23;0.80;;;;;;;2.11;100.00;99602.03;6222993;28;20143;-75
2021/12/08 01:11:19;;;;;;;0.60;0.60;;;;;;;2.12;100.00;99596.78;6227182;28;20049;-75
2021/12/08 01:14:21;;;;;;;1.73;0.68;;;;;;;2.13;100.00;99585.50;6227024;28;20666;-74
2021/12/08 01:17:22;;;;;;;2.25;1.00;;;;;;;2.16;100.00;99580.22;6227203;28;20130;-75
2021/12/08 01:20:24;;;;;;;0.75;0.60;;;;;;;2.16;100.00;99584.56;6226843;28;20053;-74
2021/12/08 01:23:28;;;;;;;1.35;0.90;;;;;;;2.19;100.00;99579.28;6225018;28;20042;-74
2021/12/08 01:26:30;;;;;;;0.73;0.73;;;;;;;2.08;100.00;99571.88;6226866;28;20042;-75
2021/12/08 01:29:31;;;;;;;3.28;1.00;;;;;;;2.12;100.00;99577.81;6226916;28;20054;-74
2021/12/08 01:32:33;;;;;;;1.42;0.80;;;;;;;2.18;100.00;99559.41;6214792;28;20050;-75
2021/12/08 01:35:34;;;;;;;1.92;0.80;;;;;;;2.16;100.00;99554.31;6202206;28;20046;-74
2021/12/08 01:38:37;;;;;;;1.05;0.70;;;;;;;2.17;100.00;99562.91;6202337;28;20461;-75
2021/12/08 01:41:39;;;;;;;2.88;0.70;;;;;;;2.20;100.00;99555.88;6201989;28;20505;-74
2021/12/08 01:48:00;;;;;;;1.70;1.00;;;;;;;2.28;100.00;99551.25;6202019;28;20490;-74
2021/12/08 01:51:06;;;;;;;2.97;0.60;;;;;;;2.34;100.00;99557.09;6201975;28;20054;-75
2021/12/08 01:54:09;;;;;;;0.90;0.70;;;;;;;2.33;100.00;99565.78;6213211;28;20065;-75
2021/12/08 01:57:10;;;;;;;0.88;0.70;;;;;;;2.31;100.00;99557.22;6226066;28;20436;-75
2021/12/08 02:00:17;;;;;;;1.13;0.60;;;;;;;2.33;100.00;99553.66;6225980;28;20084;-75
2021/12/08 02:03:21;;;;;;;1.30;0.98;;;;;;;2.31;100.00;99542.50;6226261;28;20069;-74
2021/12/08 02:06:25;;;;;;;0.82;0.63;;;;;;;2.36;100.00;99540.56;6225889;28;20054;-74
2021/12/08 02:09:28;;;;;;;1.27;0.90;;;;;;;2.29;100.00;99533.94;6225379;28;20136;-74
2021/12/08 02:12:32;;;;;;;1.63;0.93;;;;;;;2.31;100.00;99542.50;6217194;28;20413;-74
2021/12/08 02:15:35;;;;;;;3.13;1.25;;;;;;;2.35;100.00;99538.88;6223773;28;20046;-74
2021/12/08 02:18:38;;;;;;;1.80;0.80;;;;;;;2.34;100.00;99532.00;6219630;28;20193;-74
2021/12/08 02:21:43;;;;;;;0.90;0.63;;;;;;;2.21;100.00;99529.06;6216923;28;20497;-74
2021/12/08 02:24:45;;;;;;;1.20;0.90;;;;;;;2.09;100.00;99531.25;6223839;28;20061;-74
2021/12/08 02:27:47;;;;;;;1.20;0.80;;;;;;;1.92;100.00;99531.91;6205645;28;20046;-74
2021/12/08 02:30:52;;;;;;;0.75;0.63;;;;;;;1.70;100.00;99526.69;6200898;28;20513;-74
2021/12/08 02:47:27;;;;;;;0.68;0.65;;;;;;;1.02;100.00;99513.53;6200829;28;20494;-74
2021/12/08 02:50:31;;;;;;;0.95;0.73;;;;;;;1.01;100.00;99518.78;6200424;28;20197;-74
2021/12/08 02:53:34;;;;;;;2.25;1.02;;;;;;;0.96;100.00;99516.34;6208626;28;20054;-74
2021/12/08 02:56:36;;;;;;;1.40;0.88;;;;;;;0.90;100.00;99508.78;6224757;28;20057;-74
2021/12/08 02:59:38;;;;;;;0.73;0.73;;;;;;;0.91;100.00;99509.63;6224525;28;20049;-74
2021/12/08 03:02:39;;;;;;;2.42;0.90;;;;;;;0.92;100.00;99498.41;6224430;28;20386;-74
2021/12/08 03:05:41;;;;;;;1.98;0.63;;;;;;;0.92;100.00;99496.66;6223741;28;20054;-74
2021/12/08 03:08:44;;;;;;;1.50;1.02;;;;;;;0.93;100.00;99493.16;6216183;28;20049;-74
2021/12/08 03:11:48;;;;;;;1.05;0.57;;;;;;;0.90;100.00;99495.00;6216083;28;20054;-74
2021/12/08 03:14:49;;;;;;;1.50;0.90;;;;;;;0.95;100.00;99482.75;6215897;28;20041;-74
2021/12/08 03:17:51;;;;;;;1.38;1.27;;;;;;;0.97;100.00;99479.22;6223938;28;20045;-74
2021/12/08 03:20:52;;;;;;;0.95;0.75;;;;;;;1.00;100.00;99478.31;6215789;28;20057;-74
2021/12/08 03:24:07;;;;;;;3.72;1.20;;;;;;;1.02;100.00;99490.25;6210954;28;20418;-74
2021/12/08 03:27:11;;;;;;;0.77;0.77;;;;;;;0.99;100.00;99484.34;6222979;28;20173;-74
2021/12/08 03:30:16;;;;;;;0.50;0.50;;;;;;;0.97;100.00;99491.31;6223538;28;20054;-74
2021/12/08 03:33:18;;;;;;;0.50;0.50;;;;;;;0.95;100.00;99490.53;6215218;28;20097;-74
2021/12/08 03:36:19;;;;;;;3.45;1.00;;;;;;;0.94;100.00;99492.25;6223583;28;20042;-74
2021/12/08 03:39:22;;;;;;;0.95;0.82;;;;;;;0.97;100.00;99499.09;6223539;28;20057;-74
2021/12/08 03:42:26;;;;;;;1.17;0.73;;;;;;;0.94;100.00;99500.03;6223417;28;20054;-74
2021/12/08 03:45:32;;;;;;;0.88;0.52;;;;;;;0.90;100.00;99493.25;6223663;28;20050;-74
2021/12/08 03:48:43;;;;;;;0.85;0.73;;;;;;;0.90;100.00;99493.25;6223728;28;20049;-74
2021/12/08 03:51:45;;;;;;;1.45;0.73;;;;;;;0.87;100.00;99484.78;6223510;28;20057;-74
2021/12/08 03:54:48;;;;;;;0.63;0.52;;;;;;;0.83;100.00;99496.13;6222450;28;20049;-74
2021/12/08 03:57:49;;;;;;;1.25;0.63;;;;;;;0.79;100.00;99486.78;6223583;28;20042;-74
2021/12/08 04:00:53;;;;;;;0.70;0.70;;;;;;;0.79;100.00;99485.03;6219527;28;20046;-74
2021/12/08 04:04:00;;;;;;;1.42;0.93;;;;;;;0.85;100.00;99483.97;6198743;28;20494;-74
2021/12/08 04:07:03;;;;;;;0.60;0.60;;;;;;;0.89;100.00;99486.41;6199212;28;20052;-74
2021/12/08 04:10:06;;;;;;;0.30;0.30;;;;;;;0.93;100.00;99482.81;6208379;28;20046;-74
2021/12/08 04:13:08;;;;;;;1.10;0.82;;;;;;;0.98;100.00;99486.09;6214699;28;20082;-74
2021/12/08 04:16:11;;;;;;;1.92;0.95;;;;;;;1.03;100.00;99488.53;6222653;28;20046;-75
2021/12/08 04:19:13;;;;;;;0.60;0.60;;;;;;;1.03;100.00;99488.53;6215022;28;20053;-75
2021/12/08 04:22:18;;;;;;;0.65;0.65;;;;;;;1.10;100.00;99491.75;6222642;28;20050;-74
2021/12/08 04:25:26;;;;;;;1.02;0.70;;;;;;;1.10;100.00;99494.34;6222894;28;20056;-75
2021/12/08 04:28:31;;;;;;;2.13;1.00;;;;;;;1.10;100.00;99492.59;6222237;28;20045;-74
2021/12/08 04:31:35;;;;;;;1.20;0.80;;;;;;;1.15;100.00;99495.03;6222822;28;20054;-74
2021/12/08 04:34:40;;;;;;;0.55;0.50;;;;;;;1.13;100.00;99500.22;6222580;28;20050;-74
2021/12/08 04:37:46;;;;;;;2.88;1.10;;;;;;;1.14;100.00;99506.28;6214777;28;20038;-74
2021/12/08 04:41:00;;;;;;;9.75;1.45;;;;;;;1.17;100.00;99512.16;6222428;28;20060;-75
2021/12/08 04:44:12;;;;;;;1.75;1.33;;;;;;;1.19;100.00;99507.78;6221776;28;20057;-74
2021/12/08 04:47:27;;;;;;;1.48;1.00;;;;;;;1.19;100.00;99512.97;6222451;28;20576;-74
2021/12/08 04:50:47;;;;;;;0.88;0.82;;;;;;;1.18;100.00;99516.47;6222370;28;20061;-74
2021/12/08 05:00:12;;;;;;;0.93;0.80;;;;;;;1.19;100.00;99512.13;6200837;28;20042;-74
2021/12/08 05:01:16;;;;;;;1.95;1.13;;;;;;;1.21;100.00;99523.25;6209400;28;20417;-74
2021/12/08 05:04:37;;;;;;;1.30;1.00;;;;;;;1.24;100.00;99511.06;6209293;28;20054;-74
2021/12/08 05:07:49;;;;;;;1.15;0.98;;;;;;;1.30;100.00;99515.16;6209719;28;20042;-74
2021/12/08 05:10:53;;;;;;;0.88;0.80;;;;;;;1.38;100.00;99522.69;6207957;28;20690;-74
2021/12/08 05:13:58;;;;;;;1.90;0.90;;;;;;;1.43;100.00;99513.84;6207694;28;20057;-74
2021/12/08 05:17:04;;;;;;;2.85;1.13;;;;;;;1.47;100.00;99514.56;6209564;28;20038;-74
2021/12/08 05:20:12;;;;;;;1.65;0.90;;;;;;;1.55;100.00;99514.31;6209722;28;20049;-74
2021/12/08 05:23:17;;;;;;;0.55;0.55;;;;;;;1.61;100.00;99507.16;6208293;28;20046;-74
2021/12/08 05:26:24;;;;;;;1.23;0.90;;;;;;;1.58;100.00;99511.59;6209100;28;20051;-74
2021/12/08 05:29:33;;;;;;;1.35;1.13;;;;;;;1.58;100.00;99516.78;6204894;28;20046;-74
2021/12/08 05:32:35;;;;;;;0.85;0.82;;;;;;;1.61;100.00;99517.50;6197892;28;20057;-75
2021/12/08 05:35:38;;;;;;;1.00;1.00;;;;;;;1.63;100.00;99507.94;6196811;28;20057;-74
2021/12/08 05:38:40;;;;;;;2.10;1.63;;;;;;;1.62;100.00;99514.00;6196122;28;20046;-74
2021/12/08 05:41:43;;;;;;;1.17;1.05;;;;;;;1.64;100.00;99520.00;6196074;28;20046;-75
2021/12/08 05:44:47;;;;;;;1.02;0.93;;;;;;;1.68;100.00;99524.16;6195917;28;20053;-74
2021/12/08 05:47:50;;;;;;;0.52;0.52;;;;;;;1.65;100.00;99520.84;6196393;28;20070;-74
2021/12/08 05:50:55;;;;;;;0.68;0.68;;;;;;;1.65;100.00;99518.25;6196814;28;20054;-74
2021/12/08 05:53:59;;;;;;;0.60;0.57;;;;;;;1.70;100.00;99513.75;6217129;28;20053;-75
2021/12/08 05:57:06;;;;;;;0.77;0.77;;;;;;;1.71;100.00;99513.69;6226245;28;20050;-75
2021/12/08 06:00:15;;;;;;;0.88;0.63;;;;;;;1.74;100.00;99517.91;6225778;28;20054;-74
2021/12/08 06:03:17;;;;;;;1.08;0.77;;;;;;;1.73;100.00;99527.44;6226461;28;20061;-75
2021/12/08 06:06:21;;;;;;;1.50;1.08;;;;;;;1.77;100.00;99530.72;6226116;28;20049;-75
2021/12/08 06:09:26;;;;;;;0.70;0.70;;;;;;;1.84;100.00;99521.00;6225261;28;20101;-75
2021/12/08 06:12:28;;;;;;;2.25;0.70;;;;;;;1.84;100.00;99523.59;6217459;28;20061;-74
2021/12/08 06:15:31;;;;;;;0.82;0.82;;;;;;;1.88;100.00;99518.22;6214661;28;20046;-74
2021/12/08 06:18:38;;;;;;;1.02;0.80;;;;;;;1.89;100.00;99512.16;6223198;28;20046;-75
2021/12/08 06:21:39;;;;;;;0.75;0.70;;;;;;;1.85;100.00;99522.69;6212561;28;20493;-75
2021/12/08 06:24:41;;;;;;;0.93;0.90;;;;;;;1.89;100.00;99519.91;6203526;28;20057;-75
2021/12/08 06:27:42;;;;;;;0.35;0.35;;;;;;;1.90;100.00;99525.94;6201322;28;20057;-75
2021/12/08 06:30:46;;;;;;;1.95;0.90;;;;;;;1.89;100.00;99522.50;6201267;28;20410;-74
2021/12/08 06:33:48;;;;;;;2.55;1.25;;;;;;;1.92;100.00;99527.59;6201014;28;20461;-75
2021/12/08 06:36:54;;;;;;;0.65;0.60;;;;;;;1.94;100.00;99535.28;6201682;28;20446;-74
2021/12/08 06:39:59;;;;;;;1.05;0.80;;;;;;;1.94;100.00;99533.53;6217737;28;20416;-75
2021/12/08 06:43:05;;;;;;;1.38;1.10;;;;;;;1.99;100.00;99534.19;6217431;28;20049;-74
2021/12/08 06:46:08;;;;;;;3.97;1.48;;;;;;;2.11;100.00;99535.50;6225068;28;20073;-75
2021/12/08 06:49:13;;;;;;;0.80;0.80;;;;;;;2.05;100.00;99545.28;6216764;28;20038;-75
2021/12/08 06:52:19;;;;;;;1.52;0.98;;;;;;;2.08;100.00;99547.72;6223844;28;20076;-74
2021/12/08 06:55:25;;;;;;;0.95;0.88;;;;;;;2.10;100.00;99549.38;6215891;28;20061;-75
2021/12/08 06:58:31;;;;;;;2.38;0.82;;;;;;;2.07;100.00;99559.00;6216302;28;20050;-76
2021/12/08 07:01:43;;;;;;;1.48;1.00;;;;;;;2.09;100.00;99550.28;6218605;28;20131;-75
2021/12/08 07:04:55;;;;;;;1.05;0.65;;;;;;;2.14;100.00;99539.72;6214174;28;20716;-75
2021/12/08 07:08:02;;;;;;;1.38;0.85;;;;;;;2.06;100.00;99557.31;6215467;28;20050;-74
2021/12/08 07:11:05;;;;;;;1.35;0.85;;;;;;;2.03;100.00;99560.84;6223544;28;20042;-75
2021/12/08 07:14:06;;;;;;;0.65;0.65;;;;;;;2.04;100.00;99567.72;6216381;28;20054;-75
2021/12/08 07:17:13;;;;;;;3.47;1.02;;;;;;;2.05;100.00;99569.44;6217002;28;20367;-75
2021/12/08 07:20:33;;;;;;;0.88;0.85;;;;;;;2.07;100.00;99562.44;6223222;28;20062;-74
2021/12/08 07:23:37;;;;;;;1.98;1.77;;;;;;;2.07;100.00;99566.78;6215943;28;20124;-74
2021/12/08 07:26:40;;;;;;;1.45;0.93;;;;;;;2.07;100.00;99569.34;6224306;28;20046;-75
2021/12/08 07:29:44;;;;;;;2.70;0.80;;;;;;;2.08;100.00;99579.66;6224042;28;20500;-75
2021/12/08 07:32:49;;;;;;;2.58;1.00;;;;;;;2.06;100.00;99583.22;6215628;28;20117;-74
2021/12/08 07:35:55;;;;;;;0.93;0.50;;;;;;;2.15;100.00;99575.09;6223674;28;20050;-75
2021/12/08 07:38:59;;;;;;;2.38;1.35;;;;;;;2.16;100.00;99592.34;6223774;28;20429;-74
2021/12/08 07:42:07;;;;;;;1.35;0.63;;;;;;;2.17;100.00;99575.88;6223460;28;20050;-75
2021/12/08 07:45:11;;;;;;;1.25;0.80;;;;;;;2.20;100.00;99591.31;6223913;28;20046;-75
2021/12/08 07:48:17;;;;;;;1.52;1.00;;;;;;;2.25;100.00;99587.66;6222643;28;20046;-74
2021/12/08 07:51:23;;;;;;;1.33;0.98;;;;;;;2.24;100.00;99596.34;6214663;28;20054;-74
2021/12/08 07:54:27;;;;;;;1.55;0.75;;;;;;;2.22;100.00;99594.69;6210634;28;20046;-75
2021/12/08 07:57:34;;;;;;;1.13;0.63;;;;;;;2.23;100.00;99588.63;6208146;28;20568;-75
2021/12/08 08:00:41;;;;;;;1.17;0.85;;;;;;;2.23;100.00;99589.47;6223333;28;20057;-74
2021/12/08 08:03:45;;;;;;;4.10;1.27;;;;;;;2.25;100.00;99600.59;6223378;28;20046;-75
2021/12/08 08:06:50;;;;;;;2.72;0.88;;;;;;;2.30;100.00;99597.84;6223243;28;20050;-75
2021/12/08 08:10:00;;;;;;;2.13;0.95;;;;;;;2.31;100.00;99601.28;6222442;28;20045;-74
2021/12/08 08:13:02;;;;;;;2.20;1.10;;;;;;;2.35;100.00;99610.63;6212468;28;20049;-75
2021/12/08 08:16:07;;;;;;;1.40;1.00;;;;;;;2.38;100.00;99616.53;6222880;28;20049;-74
2021/12/08 08:19:13;;;;;;;1.17;0.80;;;;;;;2.43;100.00;99614.63;6214242;28;20045;-73
2021/12/08 08:22:18;;;;;;;1.63;1.13;;;;;;;2.48;100.00;99617.03;6211246;28;20556;-74
2021/12/08 08:25:27;;;;;;;1.08;0.80;;;;;;;2.48;100.00;99609.25;6210411;28;20061;-73
2021/12/08 08:28:28;;;;;;;1.52;0.73;;;;;;;2.46;100.00;99606.72;6214320;28;20041;-73
2021/12/08 08:31:33;;;;;;;0.93;0.80;;;;;;;2.44;100.00;99621.50;6216781;28;20050;-73
2021/12/08 08:34:44;;;;;;;1.15;0.82;;;;;;;2.43;100.00;99635.34;6213787;28;20053;-73
2021/12/08 08:37:47;;;;;;;1.20;0.90;;;;;;;2.50;100.00;99628.22;6221839;28;20046;-73
2021/12/08 08:40:52;;;;;;;2.38;0.75;;;;;;;2.52;100.00;99640.19;6222199;28;20050;-73
2021/12/08 08:43:57;;;;;;;2.15;1.02;;;;;;;2.56;100.00;99646.13;6222560;28;20057;-73
2021/12/08 08:47:00;;;;;;;1.15;0.80;;;;;;;2.54;100.00;99630.63;6222245;28;20046;-73
2021/12/08 08:50:06;;;;;;;2.83;1.27;;;;;;;2.60;100.00;99646.84;6222038;28;20138;-73
2021/12/08 08:53:10;;;;;;;1.23;0.90;;;;;;;2.59;100.00;99652.91;6213882;28;20046;-73
2021/12/08 08:56:14;;;;;;;1.80;1.33;;;;;;;2.63;100.00;99651.91;6200163;28;20058;-73
2021/12/08 08:59:20;;;;;;;1.63;1.00;;;;;;;2.65;100.00;99650.09;6221830;28;20441;-73
2021/12/08 09:02:25;;;;;;;1.33;1.05;;;;;;;2.70;100.00;99656.81;6221970;28;20512;-73
2021/12/08 09:05:33;;;;;;;1.15;0.93;;;;;;;2.77;100.00;99660.84;6220644;28;20050;-73
2021/12/08 09:08:36;;;;;;;6.35;1.17;;;;;;;2.76;100.00;99660.91;6215122;28;20498;-73
2021/12/08 09:11:40;;;;;;;2.03;1.17;;;;;;;2.80;100.00;99652.94;6213510;28;20090;-72
2021/12/08 09:14:46;;;;;;;1.70;1.27;;;;;;;2.78;100.00;99659.94;6216778;28;20054;-73
2021/12/08 09:17:52;;;;;;;0.95;0.95;;;;;;;2.78;100.00;99667.72;6222046;28;20520;-74
2021/12/08 09:21:08;;;;;;;3.28;1.17;;;;;;;2.82;100.00;99673.66;6213490;28;20050;-74
2021/12/08 09:24:18;;;;;;;1.38;0.93;;;;;;;2.89;100.00;99682.88;6221294;28;20094;-74
2021/12/08 09:27:24;;;;;;;1.67;1.23;;;;;;;2.95;100.00;99680.06;6221813;28;20144;-74
2021/12/08 09:30:33;;;;;;;2.42;1.30;;;;;;;2.97;100.00;99692.97;6216694;28;20069;-73
2021/12/08 09:33:39;;;;;;;3.80;1.38;;;;;;;2.98;100.00;99692.88;6226950;28;20050;-73
2021/12/08 09:36:46;;;;;;;1.40;1.25;;;;;;;2.99;100.00;99685.94;6226717;28;20053;-73
2021/12/08 09:39:50;;;;;;;2.22;1.23;;;;;;;2.99;100.00;99681.59;6226640;28;20054;-74
2021/12/08 09:42:55;;;;;;;1.92;1.42;;;;;;;2.98;100.00;99689.44;6218083;28;20046;-74
2021/12/08 09:46:01;;;;;;;5.07;1.20;;;;;;;3.02;100.00;99691.03;6226342;28;20057;-73
2021/12/08 09:49:05;;;;;;;2.15;1.60;;;;;;;3.06;100.00;99695.19;6226372;28;20050;-73
2021/12/08 09:52:09;;;;;;;2.83;1.35;;;;;;;3.12;100.00;99681.13;6226134;28;20056;-73
2021/12/08 09:55:12;;;;;;;0.88;0.75;;;;;;;3.12;100.00;99671.59;6224609;28;20517;-73
2021/12/08 09:58:14;;;;;;;1.33;1.23;;;;;;;3.11;100.00;99672.50;6226166;28;20064;-73
2021/12/08 10:01:19;;;;;;;1.80;1.08;;;;;;;3.11;100.00;99667.31;6225875;28;20077;-73
2021/12/08 10:04:20;;;;;;;1.35;1.17;;;;;;;3.12;100.00;99675.94;6226034;28;20060;-74
2021/12/08 10:07:24;;;;;;;2.42;1.35;;;;;;;3.11;100.00;99688.06;6225947;28;20053;-74
2021/12/08 10:10:28;;;;;;;1.75;1.15;;;;;;;3.10;100.00;99683.78;6225003;28;20058;-74
2021/12/08 10:13:29;;;;;;;5.28;1.15;;;;;;;3.15;100.00;99678.41;6217275;28;20054;-73
2021/12/08 10:16:32;;;;;;;2.33;1.13;;;;;;;3.16;100.00;99674.91;6219254;28;20516;-74
2021/12/08 10:19:34;;;;;;;3.22;1.00;;;;;;;3.15;100.00;99689.63;6219007;28;20049;-74
2021/12/08 10:22:37;;;;;;;3.08;1.08;;;;;;;3.14;100.00;99698.34;6217240;28;20046;-74
2021/12/08 10:25:44;;;;;;;2.03;1.65;;;;;;;3.17;100.00;99695.59;6224703;28;20061;-73
2021/12/08 10:28:48;;;;;;;2.47;1.95;;;;;;;3.22;100.00;99685.88;6221800;28;20053;-73
2021/12/08 10:31:53;;;;;;;2.75;1.15;;;;;;;3.27;100.00;99688.28;6221089;28;20046;-73
2021/12/08 10:35:05;;;;;;;1.25;1.02;;;;;;;3.31;100.00;99682.06;6225018;28;20057;-73
2021/12/08 10:38:07;;;;;;;1.65;1.10;;;;;;;3.37;100.00;99688.78;6225410;28;20057;-73
2021/12/08 10:41:09;;;;;;;2.28;1.27;;;;;;;3.47;100.00;99671.91;6224920;28;20050;-74
2021/12/08 10:44:10;;;;;;;1.63;1.15;;;;;;;3.48;100.00;99671.84;6225245;28;20053;-73
2021/12/08 10:47:13;;;;;;;3.28;1.55;;;;;;;3.58;100.00;99674.03;6224921;28;20537;-73
2021/12/08 10:57:02;;;;;;;4.68;1.63;;;;;;;3.71;100.00;99657.88;6215069;28;20049;-73
2021/12/08 11:00:07;;;;;;;2.35;1.52;;;;;;;3.85;100.00;99659.03;6224423;28;20049;-74
2021/12/08 11:03:11;;;;;;;1.58;1.10;;;;;;;3.85;100.00;99659.88;6224567;28;20049;-74
2021/12/08 11:06:15;;;;;;;2.58;1.13;;;;;;;3.82;100.00;99654.84;6224438;28;20082;-74
2021/12/08 11:09:20;;;;;;;2.90;1.65;;;;;;;3.86;100.00;99661.59;6224242;28;20504;-74
2021/12/08 11:12:21;;;;;;;1.40;1.17;;;;;;;3.82;100.00;99652.25;6224122;28;20053;-74
2021/12/08 11:15:23;;;;;;;3.58;1.55;;;;;;;3.85;100.00;99664.22;6224673;28;20056;-74
2021/12/08 11:18:26;;;;;;;7.68;1.38;;;;;;;3.90;100.00;99649.28;6224178;28;20045;-74
2021/12/08 11:21:36;;;;;;;4.25;1.45;;;;;;;3.92;100.00;99655.28;6224329;28;20485;-74
2021/12/08 11:24:45;;;;;;;;;;;;;;;3.92;100.00;99643.13;6213905;28;20053;-74
2021/12/08 11:27:47;;;;;;;2.28;1.27;;;;;;;3.98;100.00;99653.25;6199785;28;19922;-74
2021/12/08 11:30:48;;;;;;;2.58;1.67;;;;;;;4.04;100.00;99663.38;6222639;28;20049;-74
2021/12/08 11:33:59;;;;;;;5.50;1.40;;;;;;;4.07;100.00;99676.22;6218220;28;20417;-72
2021/12/08 11:37:03;;;;;;;2.97;1.25;;;;;;;4.04;100.00;99680.72;6220891;28;20139;-72
2021/12/08 11:40:16;;;;;;;2.75;1.27;;;;;;;4.07;100.00;99680.59;6223639;28;20672;-72
2021/12/08 11:43:28;;;;;;;3.17;1.30;;;;;;;4.09;100.00;99691.78;6223703;28;20050;-73
2021/12/08 11:46:34;;;;;;;5.00;1.25;;;;;;;4.12;100.00;99682.97;6223609;28;20050;-73
2021/12/08 11:49:42;;;;;;;1.10;1.00;;;;;;;4.12;100.00;99680.38;6223439;28;20056;-72
2021/12/08 11:52:44;;;;;;;2.40;1.17;;;;;;;4.16;100.00;99674.16;6222570;28;20073;-72
2021/12/08 11:55:47;;;;;;;2.88;1.45;;;;;;;4.22;100.00;99669.50;6219135;28;20049;-72
2021/12/08 11:58:54;;;;;;;1.45;1.00;;;;;;;4.28;100.00;99681.41;6223100;28;20042;-72
2021/12/08 12:01:56;;;;;;;1.85;1.23;;;;;;;4.27;100.00;99684.91;6222816;28;20485;-72
2021/12/08 12:04:58;;;;;;;1.92;1.10;;;;;;;4.27;100.00;99682.28;6223043;28;20053;-72
2021/12/08 12:08:00;;;;;;;6.85;1.40;;;;;;;4.27;100.00;99690.09;6218203;28;20046;-73
2021/12/08 12:11:03;;;;;;;1.92;0.95;;;;;;;4.25;100.00;99687.56;6214075;28;20046;-72
2021/12/08 12:14:05;;;;;;;2.90;2.15;;;;;;;4.24;100.00;99680.69;6214562;28;20050;-73
2021/12/08 12:17:07;;;;;;;2.45;1.50;;;;;;;4.23;100.00;99670.38;6214359;28;20045;-72
2021/12/08 12:20:15;;;;;;;1.83;1.00;;;;;;;4.23;100.00;99663.41;6222741;28;20041;-72
2021/12/08 12:23:46;;;;;;;1.50;1.00;;;;;;;4.30;100.00;99669.16;6214927;28;20065;-72
2021/12/08 12:26:59;;;;;;;3.15;1.25;;;;;;;4.45;100.00;99681.50;6219630;28;20307;-73
2021/12/08 12:30:10;;;;;;;2.22;1.15;;;;;;;4.41;100.00;99682.56;6222328;28;20045;-71
2021/12/08 12:33:17;;;;;;;2.88;1.35;;;;;;;4.35;100.00;99674.16;6215489;28;20509;-72
2021/12/08 12:36:20;;;;;;;2.08;1.00;;;;;;;4.27;100.00;99684.91;6221864;28;20046;-71
2021/12/08 12:39:24;;;;;;;1.10;0.85;;;;;;;4.22;100.00;99682.50;6222262;28;20062;-73
2021/12/08 12:42:32;;;;;;;2.08;1.40;;;;;;;4.23;100.00;99675.56;6220388;28;20046;-72
2021/12/08 12:45:38;;;;;;;1.65;1.08;;;;;;;4.22;100.00;99674.69;6221904;28;20057;-73
2021/12/08 12:48:41;;;;;;;1.90;1.05;;;;;;;4.23;100.00;99668.63;6221975;28;20057;-73
2021/12/08 12:51:56;;;;;;;1.67;1.20;;;;;;;4.25;100.00;99669.38;6213805;28;20053;-72
2021/12/08 12:55:08;;;;;;;2.38;1.08;;;;;;;4.30;100.00;99676.97;6219923;28;20057;-72
2021/12/08 12:58:19;;;;;;;2.92;1.60;;;;;;;4.29;100.00;99677.88;6212863;28;20049;-73
2021/12/08 13:01:29;;;;;;;2.58;1.00;;;;;;;4.35;100.00;99681.97;6209958;28;20050;-73
2021/12/08 13:04:32;;;;;;;7.20;4.05;;;;;;;4.37;100.00;99675.78;6214798;28;20046;-73
2021/12/08 13:07:39;;;;;;;3.22;1.95;;;;;;;4.36;100.00;99674.13;6212007;28;20060;-73
2021/12/08 13:10:41;;;;;;;2.80;0.95;;;;;;;4.36;100.00;99673.25;6220141;28;20049;-73
2021/12/08 13:13:49;;;;;;;2.28;1.30;;;;;;;4.36;100.00;99676.72;6215851;28;20202;-73
2021/12/08 13:17:11;;;;;;;2.15;1.13;;;;;;;4.38;100.00;99684.44;6220032;28;20045;-74
2021/12/08 13:20:25;;;;;;;9.02;1.25;;;;;;;4.38;100.00;99672.28;6222525;28;20038;-74
2021/12/08 13:23:30;;;;;;;1.30;0.95;;;;;;;4.39;100.00;99671.34;6217960;28;20039;-74
2021/12/08 13:26:47;;;;;;;2.17;1.10;;;;;;;4.33;100.00;99679.44;6223681;28;20050;-74
2021/12/08 13:30:09;;;;;;;1.27;0.90;;;;;;;4.30;100.00;99684.78;6222434;28;20129;-72
2021/12/08 13:33:23;;;;;;;1.38;1.10;;;;;;;4.28;100.00;99681.41;6217860;28;20046;-74
2021/12/08 13:36:33;;;;;;;1.48;1.10;;;;;;;4.23;100.00;99681.63;6210644;28;20046;-73
2021/12/08 13:39:39;;;;;;;2.47;1.02;;;;;;;4.20;100.00;99686.09;6223136;28;20046;-74
2021/12/08 13:42:48;;;;;;;1.58;0.85;;;;;;;4.15;100.00;99683.69;6213728;28;20069;-74
2021/12/08 13:45:51;;;;;;;1.67;1.10;;;;;;;4.11;100.00;99678.69;6226068;28;20053;-74
2021/12/08 13:49:15;;;;;;;1.33;0.98;;;;;;;4.07;100.00;99684.03;6216463;28;20050;-74
2021/12/08 13:52:26;;;;;;;1.40;0.98;;;;;;;4.06;100.00;99691.91;6222902;28;20053;-75
2021/12/08 13:55:30;;;;;;;1.63;0.85;;;;;;;4.06;100.00;99687.53;6233995;28;20055;-74
2021/12/08 13:58:37;;;;;;;2.45;0.98;;;;;;;4.05;100.00;99693.66;6239371;28;20060;-74
2021/12/08 14:01:41;;;;;;;1.02;0.73;;;;;;;4.06;100.00;99697.94;6215440;28;20416;-74
2021/12/08 14:04:42;;;;;;;1.27;0.88;;;;;;;4.07;100.00;99706.59;6225931;28;20061;-75
2021/12/08 14:07:49;;;;;;;1.77;1.00;;;;;;;4.06;100.00;99703.16;6225405;28;20046;-74
2021/12/08 14:10:53;;;;;;;1.20;1.10;;;;;;;4.05;100.00;99705.81;6225172;28;20048;-74
2021/12/08 14:13:54;;;;;;;2.38;1.25;;;;;;;3.96;100.00;99693.22;6225504;28;20057;-75
2021/12/08 14:16:57;;;;;;;1.80;1.60;;;;;;;3.89;100.00;99695.22;6225280;28;20564;-75
2021/12/08 14:19:58;;;;;;;1.48;1.13;;;;;;;3.83;100.00;99699.84;6203915;28;20053;-75
2021/12/08 14:23:02;;;;;;;3.17;1.40;;;;;;;3.75;100.00;99705.38;6201138;28;20050;-75
2021/12/08 14:26:06;;;;;;;1.65;1.05;;;;;;;3.67;100.00;99713.47;6205705;28;20052;-75
2021/12/08 14:29:10;;;;;;;6.85;1.50;;;;;;;3.64;100.00;99715.38;6225401;28;20104;-74
2021/12/08 14:32:13;;;;;;;1.77;1.20;;;;;;;3.61;100.00;99726.72;6223550;28;20749;-75
2021/12/08 14:35:15;;;;;;;6.32;1.38;;;;;;;3.53;100.00;99727.03;6215584;28;20056;-74
2021/12/08 14:38:17;;;;;;;2.90;1.42;;;;;;;3.51;100.00;99748.78;6219099;28;20054;-75
2021/12/08 14:41:21;;;;;;;2.60;1.08;;;;;;;3.49;100.00;99748.00;6217522;28;20530;-76
2021/12/08 14:44:25;;;;;;;2.25;1.25;;;;;;;3.46;100.00;99755.94;6218219;28;20038;-75
2021/12/08 14:47:31;;;;;;;1.38;1.00;;;;;;;3.43;100.00;99751.69;6223714;28;20099;-75
2021/12/08 14:50:33;;;;;;;1.10;1.00;;;;;;;3.38;100.00;99748.44;6221427;28;20049;-75
2021/12/08 14:53:35;;;;;;;1.42;1.00;;;;;;;3.32;100.00;99751.28;6216406;28;20050;-75
2021/12/08 14:56:37;;;;;;;2.45;1.20;;;;;;;3.27;100.00;99753.19;6222506;28;20053;-75
2021/12/08 14:59:44;;;;;;;1.33;1.10;;;;;;;3.22;100.00;99753.38;6224177;28;20053;-75
2021/12/08 15:02:57;;;;;;;2.38;1.23;;;;;;;3.19;100.00;99758.69;6222798;28;20046;-74